Terminal Aerodrome Forecast
Issued by NWS Melbourne, FL

Home | Current Version | Previous Version | Text Only | Print | Product List | Glossary On
Versions: 1 2 3 4 5 6 7 8 9 10 11 12 13 14 15 16 17 18 19 20 21 22 23 24 25
000
FTUS42 KMLB 130200 AAA
TAFMCO
TAF AMD
KMCO 130251Z 1303/1324 04005KT P6SM FEW030 SCT100 BKN200
     FM131400 16005KT P6SM SCT025 BKN250
     FM131900 11007KT P6SM VCTS SCT040CB BKN100=

USA.gov is the U.S. government's official web portal to all federal, state and local government web resources and services.